Time;durP1;ratioP1;P1;durP2;ratioP2;P2;SDS_P1;SDS_P2;PMS_P1;PMS_P2;Temp;Humidity;BMP_temperature;BMP_pressure;BME280_temperature;BME280_humidity;BME280_pressure;Samples;Min_cycle;Max_cycle;Signal;HPM_P1;HPM_P2
2023/07/01 00:02:14;;;;;;;5.10;4.70;;;19.80;93.50;;;;;;5049142;28;20208;-63
2023/07/01 00:04:43;;;;;;;4.93;4.50;;;19.80;91.70;;;;;;5052379;28;20197;-63
2023/07/01 00:07:09;;;;;;;4.90;4.30;;;19.90;91.30;;;;;;5051935;28;20188;-62
2023/07/01 00:09:35;;;;;;;4.57;4.17;;;19.90;90.40;;;;;;5051888;28;20447;-62
2023/07/01 00:12:00;;;;;;;4.50;4.10;;;19.90;90.30;;;;;;5051331;28;20405;-62
2023/07/01 00:14:26;;;;;;;4.50;4.23;;;19.90;90.20;;;;;;5050517;28;20500;-63
2023/07/01 00:16:52;;;;;;;4.93;4.63;;;19.80;90.60;;;;;;5052364;28;20202;-61
2023/07/01 00:19:17;;;;;;;4.30;4.10;;;19.80;90.80;;;;;;5048075;28;20645;-63
2023/07/01 00:21:43;;;;;;;4.97;4.57;;;19.90;90.40;;;;;;5032743;28;20209;-63
2023/07/01 00:24:09;;;;;;;4.50;4.20;;;19.80;90.30;;;;;;5032132;28;20494;-62
2023/07/01 00:26:36;;;;;;;4.80;4.50;;;19.80;89.50;;;;;;5032074;28;20216;-63
2023/07/01 00:29:01;;;;;;;4.33;4.03;;;19.80;89.70;;;;;;5031599;28;20413;-63
2023/07/01 00:31:27;;;;;;;4.40;4.10;;;19.80;90.00;;;;;;5044240;28;20411;-63
2023/07/01 00:33:53;;;;;;;4.70;4.40;;;19.80;89.70;;;;;;5052155;28;20185;-61
2023/07/01 00:36:19;;;;;;;4.60;4.30;;;19.80;89.60;;;;;;5051586;28;20178;-63
2023/07/01 00:38:44;;;;;;;4.63;4.13;;;19.90;89.60;;;;;;5052463;28;20348;-63
2023/07/01 00:41:10;;;;;;;4.83;4.43;;;19.90;89.80;;;;;;5051411;28;20311;-63
2023/07/01 00:43:36;;;;;;;4.10;3.80;;;19.90;90.00;;;;;;5050375;28;20552;-63
2023/07/01 00:46:02;;;;;;;4.57;4.37;;;20.00;89.90;;;;;;5051317;28;20196;-63
2023/07/01 00:48:29;;;;;;;6.00;4.37;;;20.10;90.00;;;;;;5052060;28;20165;-63
2023/07/01 00:50:55;;;;;;;4.80;4.50;;;20.10;91.40;;;;;;5051857;28;20216;-61
2023/07/01 00:53:22;;;;;;;4.90;4.60;;;20.10;89.80;;;;;;5051644;28;20408;-63
2023/07/01 00:55:49;;;;;;;4.83;4.23;;;20.20;89.70;;;;;;5052362;28;20412;-63
2023/07/01 00:58:15;;;;;;;4.30;4.00;;;20.00;90.50;;;;;;5032443;28;21116;-63
2023/07/01 01:00:41;;;;;;;4.70;4.30;;;19.90;89.30;;;;;;5026237;28;20424;-63
2023/07/01 01:03:32;;;;;;;4.67;4.13;;;19.90;90.00;;;;;;5051195;28;20197;-62
2023/07/01 01:06:09;;;;;;;4.50;4.10;;;19.90;90.00;;;;;;5051462;28;20419;-61
2023/07/01 01:09:00;;;;;;;4.00;3.80;;;19.90;89.60;;;;;;5051927;28;20416;-63
2023/07/01 01:11:29;;;;;;;5.73;4.43;;;19.90;90.00;;;;;;5042463;28;20460;-63
2023/07/01 01:13:58;;;;;;;4.20;4.00;;;20.00;90.00;;;;;;5032313;28;20415;-63
2023/07/01 01:16:25;;;;;;;4.90;4.50;;;19.80;89.90;;;;;;5032714;28;20413;-63
2023/07/01 01:18:51;;;;;;;4.40;4.13;;;19.80;90.20;;;;;;5031978;28;20424;-63
2023/07/01 01:21:19;;;;;;;4.83;4.53;;;19.80;90.20;;;;;;5031058;28;20419;-63
2023/07/01 01:23:58;;;;;;;4.77;4.33;;;19.80;90.40;;;;;;5032528;28;20409;-63
2023/07/01 01:26:27;;;;;;;4.73;4.37;;;19.70;91.20;;;;;;5035241;28;20478;-63
2023/07/01 01:28:55;;;;;;;4.80;4.40;;;19.70;90.60;;;;;;5035520;28;20739;-63
2023/07/01 01:31:21;;;;;;;3.90;3.60;;;19.70;90.60;;;;;;5054691;28;20745;-63
2023/07/01 01:33:50;;;;;;;4.20;4.00;;;19.60;90.90;;;;;;5055522;28;20407;-63
2023/07/01 01:36:43;;;;;;;4.07;3.87;;;19.60;91.20;;;;;;5054983;28;20461;-63
2023/07/01 01:39:11;;;;;;;4.33;4.13;;;19.60;91.10;;;;;;5054647;28;20452;-63
2023/07/01 01:42:08;;;;;;;5.00;4.63;;;19.50;91.20;;;;;;5055375;28;20416;-63
2023/07/01 01:44:46;;;;;;;4.23;3.93;;;19.60;92.10;;;;;;5045988;28;20417;-63
2023/07/01 01:47:25;;;;;;;5.10;4.70;;;19.60;91.80;;;;;;5034459;28;20424;-63
2023/07/01 01:49:58;;;;;;;3.97;3.77;;;19.60;91.80;;;;;;5035175;28;20921;-63
2023/07/01 01:52:25;;;;;;;4.50;4.20;;;19.60;91.60;;;;;;5046881;28;20416;-64
2023/07/01 01:54:53;;;;;;;4.33;4.10;;;19.50;91.80;;;;;;5052942;28;20400;-63
2023/07/01 01:57:20;;;;;;;3.97;3.77;;;19.60;92.20;;;;;;5033534;28;21072;-63
2023/07/01 01:59:46;;;;;;;4.37;4.00;;;19.50;92.00;;;;;;5041887;28;20416;-63
2023/07/01 02:02:12;;;;;;;4.40;4.03;;;19.60;92.00;;;;;;5054209;28;20397;-62
2023/07/01 02:04:38;;;;;;;4.07;3.67;;;19.60;91.90;;;;;;5042001;28;20424;-63
2023/07/01 02:07:04;;;;;;;4.33;3.90;;;19.70;92.10;;;;;;5034271;28;20508;-63
2023/07/01 02:09:30;;;;;;;3.90;3.60;;;19.70;91.40;;;;;;5044096;28;20208;-63
2023/07/01 02:11:56;;;;;;;3.73;3.50;;;19.60;91.70;;;;;;5053060;28;20428;-62
2023/07/01 02:14:22;;;;;;;4.73;4.23;;;19.70;91.70;;;;;;5053964;28;20177;-63
2023/07/01 02:16:49;;;;;;;4.00;3.70;;;19.70;91.10;;;;;;5047462;28;20198;-63
2023/07/01 02:19:15;;;;;;;3.97;3.67;;;19.70;91.20;;;;;;5038096;28;20420;-62
2023/07/01 02:21:40;;;;;;;4.70;4.40;;;19.70;91.00;;;;;;5054638;28;20414;-63
2023/07/01 02:24:06;;;;;;;4.87;4.33;;;19.70;91.10;;;;;;5018312;28;20249;-62
2023/07/01 02:26:34;;;;;;;3.90;3.63;;;19.70;91.10;;;;;;5035555;28;20174;-63
2023/07/01 02:29:00;;;;;;;4.20;3.90;;;19.70;91.20;;;;;;5034350;28;20178;-61
2023/07/01 02:31:26;;;;;;;3.97;3.67;;;19.80;91.20;;;;;;5048593;28;20482;-63
2023/07/01 02:33:54;;;;;;;4.00;3.70;;;19.70;91.00;;;;;;5053803;28;20675;-64
2023/07/01 02:36:20;;;;;;;4.23;3.93;;;19.80;91.20;;;;;;5053132;28;20170;-63
2023/07/01 02:38:46;;;;;;;4.37;4.03;;;19.70;91.00;;;;;;5043102;28;20544;-63
2023/07/01 02:41:11;;;;;;;4.20;3.90;;;19.80;91.00;;;;;;5033309;28;20626;-63
2023/07/01 02:43:37;;;;;;;3.80;3.60;;;19.80;90.80;;;;;;5051973;28;20646;-63
2023/07/01 02:46:03;;;;;;;3.93;3.73;;;19.70;91.00;;;;;;5046558;28;20210;-61
2023/07/01 02:48:28;;;;;;;4.80;4.40;;;19.80;90.80;;;;;;5033904;28;20170;-62
2023/07/01 02:50:54;;;;;;;3.87;3.67;;;19.70;91.00;;;;;;5052276;28;20225;-64
2023/07/01 02:53:20;;;;;;;4.40;4.10;;;19.60;91.00;;;;;;5040971;28;20182;-63
2023/07/01 02:55:46;;;;;;;4.23;4.03;;;19.60;91.20;;;;;;5033205;28;20162;-63
2023/07/01 02:58:11;;;;;;;4.53;4.23;;;19.60;90.80;;;;;;5036155;28;20181;-62
2023/07/01 03:00:37;;;;;;;4.03;3.83;;;19.70;91.30;;;;;;5048420;28;20519;-63
2023/07/01 03:03:06;;;;;;;5.73;4.20;;;19.70;91.10;;;;;;5033688;28;20209;-61
2023/07/01 03:05:35;;;;;;;4.20;3.80;;;19.70;91.20;;;;;;5034907;28;20181;-63
2023/07/01 03:08:01;;;;;;;4.17;3.97;;;19.70;90.90;;;;;;5039794;28;20420;-63
2023/07/01 03:10:27;;;;;;;4.10;3.93;;;19.70;92.00;;;;;;5053008;28;20935;-63
2023/07/01 03:12:54;;;;;;;4.93;4.40;;;19.60;91.00;;;;;;5052264;28;20945;-63
2023/07/01 03:15:19;;;;;;;4.30;3.90;;;19.70;91.10;;;;;;5044883;28;20178;-62
2023/07/01 03:17:47;;;;;;;8.63;4.60;;;19.70;90.80;;;;;;5033623;28;20723;-62
2023/07/01 03:20:22;;;;;;;4.40;4.10;;;19.70;90.80;;;;;;5033816;28;20178;-62
2023/07/01 03:22:56;;;;;;;4.00;3.80;;;19.70;90.80;;;;;;5034972;28;20466;-62
2023/07/01 03:25:26;;;;;;;4.57;4.27;;;19.80;91.60;;;;;;5032155;28;20414;-62
2023/07/01 03:27:52;;;;;;;4.00;3.70;;;19.60;90.80;;;;;;5044516;28;20420;-63
2023/07/01 03:30:20;;;;;;;4.33;3.93;;;19.60;91.40;;;;;;5047936;28;20449;-62
2023/07/01 03:32:47;;;;;;;4.67;4.37;;;19.60;91.30;;;;;;5033324;28;20178;-63
2023/07/01 03:35:14;;;;;;;5.40;4.23;;;19.70;91.50;;;;;;5045348;28;20493;-62
2023/07/01 03:37:42;;;;;;;4.17;3.90;;;19.70;91.50;;;;;;5051211;28;20741;-63
2023/07/01 03:40:11;;;;;;;4.67;4.27;;;19.80;91.90;;;;;;5052555;28;20791;-61
2023/07/01 03:42:41;;;;;;;4.23;3.90;;;19.80;92.40;;;;;;5042828;28;20449;-63
2023/07/01 03:45:08;;;;;;;4.83;4.43;;;19.80;91.40;;;;;;5033635;28;20463;-61
2023/07/01 03:47:39;;;;;;;4.00;3.80;;;19.90;91.50;;;;;;5032263;28;20501;-63
2023/07/01 03:50:08;;;;;;;4.80;4.43;;;19.90;91.70;;;;;;5049198;28;20459;-62
2023/07/01 03:52:36;;;;;;;4.57;4.30;;;19.90;91.90;;;;;;5045686;28;20813;-63
2023/07/01 03:55:03;;;;;;;5.70;4.43;;;19.90;91.30;;;;;;5033068;28;20451;-63
2023/07/01 03:57:28;;;;;;;3.93;3.73;;;19.90;91.50;;;;;;5032855;28;20511;-63
2023/07/01 03:59:54;;;;;;;4.77;4.30;;;19.90;91.50;;;;;;5036929;28;20507;-63
2023/07/01 04:02:20;;;;;;;4.00;3.80;;;19.90;91.90;;;;;;5024058;28;20604;-62
2023/07/01 04:04:45;;;;;;;4.23;4.03;;;19.90;91.30;;;;;;5050799;28;20177;-63
2023/07/01 04:07:11;;;;;;;4.63;4.37;;;20.00;91.40;;;;;;5039045;28;20177;-64
2023/07/01 04:09:37;;;;;;;10.10;9.20;;;20.00;91.30;;;;;;5032640;28;20210;-64
2023/07/01 04:12:03;;;;;;;5.10;4.80;;;20.00;91.90;;;;;;5051547;28;20185;-65
2023/07/01 04:14:29;;;;;;;4.40;4.10;;;20.00;91.20;;;;;;5039799;28;20730;-65
2023/07/01 04:16:54;;;;;;;10.17;9.27;;;19.80;91.40;;;;;;5036246;28;20423;-65
2023/07/01 04:19:20;;;;;;;6.63;6.23;;;19.80;91.50;;;;;;5031923;28;20185;-63
2023/07/01 04:21:46;;;;;;;6.53;5.93;;;19.90;91.60;;;;;;5033511;28;20177;-63
2023/07/01 04:24:11;;;;;;;4.37;3.90;;;20.00;91.40;;;;;;5032569;28;20170;-60
2023/07/01 04:26:37;;;;;;;4.47;4.17;;;19.90;91.40;;;;;;5037503;28;20182;-61
2023/07/01 04:29:04;;;;;;;4.50;3.97;;;20.00;91.50;;;;;;5021265;28;20205;-61
2023/07/01 04:31:29;;;;;;;4.00;3.70;;;20.00;91.50;;;;;;5031608;28;20182;-61
2023/07/01 04:33:56;;;;;;;4.60;4.30;;;20.00;91.00;;;;;;5032658;28;20745;-62
2023/07/01 04:36:22;;;;;;;5.60;5.10;;;20.00;91.20;;;;;;5030955;28;20409;-61
2023/07/01 04:38:48;;;;;;;5.60;4.27;;;19.80;91.40;;;;;;5031942;28;20226;-61
2023/07/01 04:41:13;;;;;;;3.97;3.73;;;19.80;91.60;;;;;;5031533;28;20269;-61
2023/07/01 04:43:40;;;;;;;4.60;4.20;;;19.80;91.80;;;;;;5040226;28;20524;-61
2023/07/01 04:46:06;;;;;;;4.27;3.70;;;19.80;91.80;;;;;;5050074;28;20165;-61
2023/07/01 04:48:31;;;;;;;3.93;3.63;;;19.80;91.80;;;;;;5031451;28;20532;-61
2023/07/01 04:50:57;;;;;;;4.30;3.93;;;19.80;92.20;;;;;;5029111;28;20633;-61
2023/07/01 04:53:23;;;;;;;4.07;3.77;;;19.90;92.20;;;;;;5049097;28;20174;-61
2023/07/01 04:55:49;;;;;;;4.40;4.10;;;19.80;92.30;;;;;;5043886;28;20224;-61
2023/07/01 04:58:14;;;;;;;7.10;6.40;;;19.90;92.10;;;;;;5048201;28;20574;-61
2023/07/01 05:00:40;;;;;;;9.10;8.27;;;19.90;92.90;;;;;;5054678;28;20256;-61
2023/07/01 05:03:06;;;;;;;4.40;4.00;;;20.00;92.60;;;;;;5055821;28;20178;-61
2023/07/01 05:05:32;;;;;;;5.53;5.00;;;19.90;92.90;;;;;;5038331;28;20182;-61
2023/07/01 05:07:58;;;;;;;6.30;4.70;;;20.00;93.40;;;;;;5037958;28;20426;-61
2023/07/01 05:10:24;;;;;;;4.83;4.50;;;20.00;93.70;;;;;;5035188;28;20452;-61
2023/07/01 05:12:50;;;;;;;5.30;4.80;;;20.10;93.50;;;;;;5053067;28;20539;-61
2023/07/01 05:15:16;;;;;;;4.57;4.27;;;20.10;93.40;;;;;;5053383;28;20474;-61
2023/07/01 05:17:43;;;;;;;8.17;7.37;;;20.00;93.30;;;;;;5056017;28;20521;-61
2023/07/01 05:20:10;;;;;;;13.13;11.73;;;20.00;93.60;;;;;;5038761;28;20413;-61
2023/07/01 05:22:36;;;;;;;4.60;4.03;;;20.10;93.60;;;;;;5041277;28;20412;-61
2023/07/01 05:25:02;;;;;;;6.03;4.63;;;20.10;93.10;;;;;;5049585;28;20466;-61
2023/07/01 05:27:28;;;;;;;5.37;4.87;;;20.20;93.20;;;;;;5050964;28;20408;-61
2023/07/01 05:29:53;;;;;;;4.53;4.20;;;20.20;93.60;;;;;;5045767;28;20459;-61
2023/07/01 05:32:19;;;;;;;6.87;6.30;;;20.30;93.50;;;;;;5035800;28;20178;-61
2023/07/01 05:34:45;;;;;;;5.70;5.20;;;20.30;92.80;;;;;;5051999;28;20165;-61
2023/07/01 05:37:13;;;;;;;4.70;4.30;;;20.30;93.40;;;;;;5053916;28;20528;-61
2023/07/01 05:39:39;;;;;;;4.53;4.23;;;20.30;93.70;;;;;;5054818;28;20248;-62
2023/07/01 05:42:05;;;;;;;4.37;4.13;;;20.30;93.10;;;;;;5053651;28;20907;-61
2023/07/01 05:44:31;;;;;;;5.90;5.40;;;20.30;93.50;;;;;;5045565;28;20192;-61
2023/07/01 05:46:57;;;;;;;5.03;4.73;;;20.30;93.10;;;;;;5036436;28;20476;-61
2023/07/01 05:49:22;;;;;;;7.40;5.40;;;20.30;93.40;;;;;;5049675;28;20663;-61
2023/07/01 05:51:48;;;;;;;5.23;4.63;;;20.30;93.00;;;;;;5026860;28;20453;-61
2023/07/01 05:54:14;;;;;;;4.97;4.67;;;20.30;92.90;;;;;;5026214;28;20276;-61
2023/07/01 05:56:40;;;;;;;4.97;4.57;;;20.30;93.30;;;;;;5035494;28;20186;-61
2023/07/01 05:59:05;;;;;;;8.20;7.50;;;20.40;93.10;;;;;;5035726;28;20174;-62
2023/07/01 06:01:31;;;;;;;5.07;4.77;;;20.30;92.60;;;;;;5034321;28;20228;-60
2023/07/01 06:03:57;;;;;;;5.07;4.50;;;20.30;93.30;;;;;;5035332;28;20506;-60
2023/07/01 06:06:23;;;;;;;4.97;4.67;;;20.30;93.80;;;;;;5034257;28;20177;-60
2023/07/01 06:08:49;;;;;;;5.10;4.80;;;20.40;93.70;;;;;;5042910;28;20453;-61
2023/07/01 06:11:15;;;;;;;4.07;3.87;;;20.50;93.80;;;;;;5035233;28;20281;-60
2023/07/01 06:13:45;;;;;;;4.70;4.40;;;20.50;93.20;;;;;;5041251;28;20209;-60
2023/07/01 06:16:12;;;;;;;5.00;4.30;;;20.50;92.80;;;;;;5054935;28;20423;-60
2023/07/01 06:18:38;;;;;;;5.00;4.70;;;20.60;93.20;;;;;;5054760;28;20478;-60
2023/07/01 06:21:06;;;;;;;5.50;5.07;;;20.70;93.20;;;;;;5055057;28;20445;-63
2023/07/01 06:23:38;;;;;;;5.00;4.60;;;20.70;93.50;;;;;;5054443;28;20170;-60
2023/07/01 06:26:05;;;;;;;8.53;7.80;;;20.70;92.80;;;;;;5054991;28;20400;-60
2023/07/01 06:28:31;;;;;;;7.90;7.20;;;20.70;92.90;;;;;;5041222;28;20499;-60
2023/07/01 06:30:56;;;;;;;5.40;4.90;;;20.80;92.90;;;;;;5054878;28;20897;-60
2023/07/01 06:33:22;;;;;;;4.67;4.37;;;20.80;93.00;;;;;;5036302;28;20416;-61
2023/07/01 06:35:48;;;;;;;5.03;4.67;;;20.70;92.30;;;;;;5043689;28;20170;-61
2023/07/01 06:38:14;;;;;;;5.30;4.90;;;20.70;91.90;;;;;;5047649;28;20209;-61
2023/07/01 06:40:41;;;;;;;7.40;5.60;;;20.60;94.60;;;;;;5040521;28;20185;-63
2023/07/01 06:43:07;;;;;;;5.00;4.70;;;20.70;93.50;;;;;;5040984;28;20504;-64
2023/07/01 06:45:32;;;;;;;5.00;4.70;;;20.80;92.90;;;;;;5054075;28;20181;-64
2023/07/01 06:47:58;;;;;;;6.40;5.10;;;21.00;93.30;;;;;;5049917;28;20627;-63
2023/07/01 06:50:24;;;;;;;5.47;4.87;;;21.10;91.80;;;;;;5041208;28;20190;-63
2023/07/01 06:52:50;;;;;;;7.00;5.17;;;21.00;91.40;;;;;;5034808;28;20413;-63
2023/07/01 06:55:20;;;;;;;6.50;5.87;;;21.00;92.00;;;;;;5034267;28;20482;-64
2023/07/01 06:57:46;;;;;;;5.13;4.73;;;21.10;92.40;;;;;;5035731;28;20455;-63
2023/07/01 07:00:13;;;;;;;11.00;5.70;;;21.20;92.30;;;;;;5039544;28;20464;-62
2023/07/01 07:02:39;;;;;;;5.13;4.83;;;21.10;92.70;;;;;;5038492;28;20178;-63
2023/07/01 07:05:06;;;;;;;5.30;4.87;;;21.10;92.80;;;;;;5048253;28;20451;-62
2023/07/01 07:07:32;;;;;;;7.10;6.30;;;21.10;93.40;;;;;;5046533;28;20427;-60
2023/07/01 07:09:58;;;;;;;5.10;4.70;;;21.10;93.20;;;;;;5053519;28;20463;-59
2023/07/01 07:12:25;;;;;;;13.27;11.27;;;21.20;93.60;;;;;;5043681;28;20425;-59
2023/07/01 07:14:51;;;;;;;25.07;18.80;;;21.20;94.70;;;;;;5034092;28;20416;-59
2023/07/01 07:17:18;;;;;;;6.70;5.97;;;21.30;95.30;;;;;;5049953;28;20412;-63
2023/07/01 07:19:44;;;;;;;6.93;6.40;;;21.40;94.70;;;;;;5054071;28;20412;-59
2023/07/01 07:22:10;;;;;;;16.30;13.80;;;21.50;95.00;;;;;;5052741;28;20454;-59
2023/07/01 07:24:36;;;;;;;26.27;23.53;;;21.60;95.10;;;;;;5053305;28;20165;-59
2023/07/01 07:27:02;;;;;;;93.93;68.77;;;21.60;95.20;;;;;;5053756;28;20517;-60
2023/07/01 07:29:29;;;;;;;29.87;21.80;;;21.60;95.30;;;;;;5043094;28;20629;-59
2023/07/01 07:31:56;;;;;;;12.10;10.90;;;21.60;95.60;;;;;;5039041;28;20443;-59
2023/07/01 07:34:22;;;;;;;55.70;41.77;;;21.60;95.60;;;;;;5052805;28;20404;-59
2023/07/01 07:36:48;;;;;;;19.87;16.43;;;21.40;95.90;;;;;;5042237;28;20420;-58
2023/07/01 07:39:14;;;;;;;12.10;10.87;;;21.40;96.10;;;;;;5045106;28;20548;-59
2023/07/01 07:41:41;;;;;;;6.00;5.40;;;21.40;96.50;;;;;;5048387;28;20432;-60
2023/07/01 07:44:06;;;;;;;7.33;6.37;;;21.50;96.60;;;;;;5045879;28;20443;-59
2023/07/01 07:46:33;;;;;;;4.77;4.37;;;21.40;96.50;;;;;;5037252;28;20425;-59
2023/07/01 07:48:59;;;;;;;5.30;4.70;;;21.30;96.10;;;;;;5040883;28;20945;-62
2023/07/01 07:51:25;;;;;;;5.50;4.50;;;21.40;96.30;;;;;;5041713;28;20214;-60
2023/07/01 07:53:51;;;;;;;4.53;4.23;;;21.20;95.30;;;;;;5033005;28;20182;-60
2023/07/01 07:56:17;;;;;;;4.50;4.10;;;21.10;95.70;;;;;;5033291;28;20570;-60
2023/07/01 07:58:43;;;;;;;5.33;5.00;;;21.00;96.20;;;;;;5032324;28;20174;-60
2023/07/01 08:01:09;;;;;;;5.43;4.40;;;20.90;96.30;;;;;;5017602;28;20478;-60
2023/07/01 08:03:35;;;;;;;5.17;4.77;;;20.90;97.50;;;;;;5042588;28;20506;-60
2023/07/01 08:06:01;;;;;;;5.57;5.03;;;20.80;97.10;;;;;;5037126;28;20169;-60
2023/07/01 08:08:26;;;;;;;4.73;4.43;;;20.60;97.80;;;;;;5046225;28;20413;-60
2023/07/01 08:10:53;;;;;;;4.70;4.30;;;20.60;98.20;;;;;;5033394;28;20238;-59
2023/07/01 08:13:19;;;;;;;29.20;26.13;;;20.40;98.60;;;;;;5043496;28;20196;-60
2023/07/01 08:15:44;;;;;;;118.97;81.50;;;20.40;99.80;;;;;;5033615;28;20416;-59
2023/07/01 08:18:11;;;;;;;7.70;6.90;;;20.40;99.90;;;;;;5032850;28;20881;-60
2023/07/01 08:20:38;;;;;;;5.80;5.40;;;20.30;99.90;;;;;;5050826;28;20180;-60
2023/07/01 08:23:04;;;;;;;6.00;4.40;;;20.30;99.90;;;;;;5033897;28;20449;-59
2023/07/01 08:25:30;;;;;;;5.10;4.70;;;20.20;99.90;;;;;;5034566;28;20420;-62
2023/07/01 08:27:58;;;;;;;4.97;4.37;;;20.20;99.90;;;;;;5025524;28;20438;-62
2023/07/01 08:30:24;;;;;;;4.40;4.10;;;20.20;99.90;;;;;;5045239;28;20474;-61
2023/07/01 08:32:50;;;;;;;4.87;4.57;;;20.10;99.90;;;;;;5034789;28;20413;-62
2023/07/01 08:35:15;;;;;;;3.93;3.73;;;20.00;99.90;;;;;;5031054;28;20588;-62
2023/07/01 08:37:41;;;;;;;5.97;4.27;;;20.10;99.90;;;;;;5051709;28;20433;-61
2023/07/01 08:40:08;;;;;;;4.50;4.20;;;20.10;99.90;;;;;;5052254;28;20253;-62
2023/07/01 08:42:48;;;;;;;3.57;3.37;;;20.20;99.90;;;;;;5051973;28;20196;-65
2023/07/01 08:45:15;;;;;;;4.50;4.20;;;20.20;99.90;;;;;;5040858;28;20479;-65
2023/07/01 08:47:41;;;;;;;4.50;4.10;;;20.30;99.90;;;;;;5050310;28;20412;-64
2023/07/01 08:50:08;;;;;;;4.20;3.90;;;20.20;99.90;;;;;;5050415;28;20456;-65
2023/07/01 08:52:42;;;;;;;4.43;4.20;;;20.20;99.90;;;;;;5042088;28;20512;-66
2023/07/01 08:55:10;;;;;;;4.47;4.10;;;20.10;99.90;;;;;;5033537;28;20416;-64
2023/07/01 08:57:41;;;;;;;490.40;365.63;;;20.10;99.90;;;;;;5040068;28;20497;-63
2023/07/01 09:00:09;;;;;;;12.93;11.03;;;20.20;99.90;;;;;;5036385;28;20409;-61
2023/07/01 09:02:36;;;;;;;4.50;4.20;;;20.10;99.90;;;;;;5031953;28;20794;-62
2023/07/01 09:05:03;;;;;;;5.43;4.37;;;20.00;99.90;;;;;;5037784;28;20784;-61
2023/07/01 09:07:29;;;;;;;4.43;4.13;;;20.00;99.90;;;;;;5032042;28;20432;-64
2023/07/01 09:10:00;;;;;;;4.50;4.20;;;19.90;99.90;;;;;;5032481;28;20453;-67
2023/07/01 09:12:32;;;;;;;4.17;3.97;;;20.00;99.90;;;;;;5031876;28;20394;-66
2023/07/01 09:15:02;;;;;;;4.60;4.30;;;20.10;99.90;;;;;;5032296;28;20458;-66
2023/07/01 09:17:33;;;;;;;4.83;4.43;;;20.20;99.90;;;;;;5031461;28;20401;-66
2023/07/01 09:20:10;;;;;;;4.57;4.37;;;20.10;99.90;;;;;;5032312;28;20543;-67
2023/07/01 09:22:38;;;;;;;5.73;5.33;;;20.10;99.90;;;;;;5031717;28;20404;-67
2023/07/01 09:25:05;;;;;;;4.57;4.27;;;20.10;99.90;;;;;;5045702;28;20447;-67
2023/07/01 09:27:49;;;;;;;4.63;4.33;;;20.10;99.90;;;;;;5051591;28;20400;-66
2023/07/01 09:30:24;;;;;;;4.60;4.30;;;19.90;99.90;;;;;;5052096;28;20776;-67
2023/07/01 09:32:50;;;;;;;4.30;4.00;;;20.00;99.90;;;;;;5051510;28;20412;-67
2023/07/01 09:35:16;;;;;;;4.67;4.37;;;20.00;99.90;;;;;;5052400;28;20454;-67
2023/07/01 09:37:42;;;;;;;5.03;4.63;;;20.00;99.90;;;;;;5051445;28;20400;-67
2023/07/01 09:40:24;;;;;;;4.40;4.10;;;20.10;99.90;;;;;;5052161;28;20233;-67
2023/07/01 09:42:51;;;;;;;24.13;21.53;;;20.20;99.90;;;;;;5051118;28;20625;-67
2023/07/01 09:45:17;;;;;;;4.60;4.30;;;20.10;99.90;;;;;;5053431;28;20482;-67
2023/07/01 09:47:43;;;;;;;5.10;4.70;;;19.90;99.90;;;;;;5055122;28;20823;-66
2023/07/01 09:50:24;;;;;;;4.50;4.10;;;19.90;99.90;;;;;;5055574;28;20197;-67
2023/07/01 09:52:52;;;;;;;4.20;3.90;;;19.90;99.90;;;;;;5055068;28;20170;-75
2023/07/01 09:55:18;;;;;;;4.57;4.00;;;20.00;99.90;;;;;;5038558;28;20482;-67
2023/07/01 09:57:44;;;;;;;3.67;3.47;;;20.10;99.90;;;;;;5034982;28;20400;-66
2023/07/01 10:00:16;;;;;;;4.80;4.40;;;20.10;99.90;;;;;;5035684;28;20174;-66
2023/07/01 10:02:47;;;;;;;4.43;4.03;;;20.00;99.90;;;;;;5034846;28;20389;-66
2023/07/01 10:05:13;;;;;;;4.80;4.50;;;20.00;99.90;;;;;;5035400;28;20437;-67
2023/07/01 10:07:43;;;;;;;4.60;4.40;;;20.10;99.90;;;;;;5034713;28;20409;-66
2023/07/01 10:10:16;;;;;;;4.60;4.40;;;20.20;99.90;;;;;;5035330;28;20772;-66
2023/07/01 10:12:43;;;;;;;4.20;3.90;;;20.20;99.90;;;;;;5034791;28;20430;-66
2023/07/01 10:15:11;;;;;;;4.43;4.23;;;20.30;99.90;;;;;;5035237;28;20393;-66
2023/07/01 10:17:47;;;;;;;4.77;4.47;;;20.30;99.90;;;;;;5034648;28;20888;-66
2023/07/01 10:20:33;;;;;;;4.50;4.27;;;20.40;99.90;;;;;;5017290;28;20409;-67
2023/07/01 10:23:03;;;;;;;9.73;9.00;;;20.30;99.90;;;;;;5035187;28;20408;-67
2023/07/01 10:25:30;;;;;;;4.20;4.00;;;20.20;99.90;;;;;;5016057;28;20931;-66
2023/07/01 10:28:06;;;;;;;4.43;4.23;;;20.20;99.90;;;;;;5034862;28;20850;-67
2023/07/01 10:30:55;;;;;;;5.03;4.80;;;20.20;99.90;;;;;;5034465;28;20444;-65
2023/07/01 10:33:41;;;;;;;4.47;4.27;;;20.30;99.90;;;;;;5024104;28;20421;-66
2023/07/01 10:36:11;;;;;;;4.97;4.57;;;20.20;99.90;;;;;;5045242;28;20435;-67
2023/07/01 10:38:38;;;;;;;4.20;3.90;;;20.20;99.90;;;;;;5052857;28;20541;-66
2023/07/01 10:41:04;;;;;;;6.00;4.37;;;20.20;99.90;;;;;;5054777;28;20463;-66
2023/07/01 10:43:34;;;;;;;4.40;4.20;;;20.20;99.90;;;;;;5053903;28;20507;-65
2023/07/01 10:46:12;;;;;;;5.17;4.87;;;20.10;99.90;;;;;;5054692;28;20774;-67
2023/07/01 10:48:38;;;;;;;5.37;5.07;;;20.10;99.90;;;;;;5054160;28;20383;-67
2023/07/01 10:51:05;;;;;;;5.13;4.80;;;20.10;99.90;;;;;;5054408;28;20455;-66
2023/07/01 10:53:31;;;;;;;5.27;5.00;;;20.10;99.90;;;;;;5053912;28;20496;-65
2023/07/01 10:56:12;;;;;;;4.83;4.60;;;20.10;99.90;;;;;;5054127;28;20403;-67
2023/07/01 10:58:38;;;;;;;4.60;4.40;;;20.20;99.90;;;;;;5053817;28;20415;-67
2023/07/01 11:01:04;;;;;;;4.57;4.37;;;20.20;99.90;;;;;;5054058;28;20884;-67
2023/07/01 11:03:33;;;;;;;5.10;4.20;;;20.20;99.90;;;;;;5054003;28;20404;-67
2023/07/01 11:06:00;;;;;;;5.30;5.00;;;20.20;99.90;;;;;;5042485;28;20182;-67
2023/07/01 11:08:27;;;;;;;5.13;4.93;;;20.20;99.90;;;;;;5034229;28;20478;-66
2023/07/01 11:10:53;;;;;;;5.50;5.20;;;20.20;99.90;;;;;;5033365;28;20457;-66
2023/07/01 11:13:19;;;;;;;4.87;4.67;;;20.10;99.90;;;;;;5034145;28;20896;-67
2023/07/01 11:16:20;;;;;;;4.83;4.60;;;20.10;99.90;;;;;;5033552;28;20409;-67
2023/07/01 11:18:48;;;;;;;5.13;4.83;;;20.20;99.90;;;;;;4991079;28;20182;-66
2023/07/01 11:21:22;;;;;;;4.67;4.47;;;20.30;99.90;;;;;;5033783;28;20748;-67
2023/07/01 11:23:58;;;;;;;4.27;4.07;;;20.30;99.90;;;;;;5033762;28;20404;-67
2023/07/01 11:26:36;;;;;;;4.83;4.30;;;20.40;99.90;;;;;;5034050;28;20836;-67
2023/07/01 11:29:07;;;;;;;4.60;4.40;;;20.50;99.90;;;;;;5033855;28;20858;-67
2023/07/01 11:31:34;;;;;;;4.70;4.50;;;20.60;99.90;;;;;;5033202;28;20514;-66
2023/07/01 11:34:01;;;;;;;4.50;4.30;;;20.70;99.90;;;;;;5042902;28;20420;-62
2023/07/01 11:36:36;;;;;;;4.10;4.00;;;20.70;99.90;;;;;;5034587;28;20432;-61
2023/07/01 11:39:09;;;;;;;4.30;4.10;;;20.80;99.90;;;;;;5040240;28;20451;-61
2023/07/01 11:41:37;;;;;;;4.27;3.97;;;20.80;99.90;;;;;;5053035;28;20893;-62
2023/07/01 11:44:06;;;;;;;16.10;14.37;;;20.80;99.90;;;;;;5052518;28;20404;-61
2023/07/01 11:46:37;;;;;;;31.37;26.70;;;20.90;99.90;;;;;;5041176;28;20431;-61
2023/07/01 11:49:19;;;;;;;5.07;4.77;;;20.90;99.90;;;;;;5033449;28;20398;-61
2023/07/01 11:51:50;;;;;;;4.60;4.40;;;20.90;99.90;;;;;;5032202;28;20425;-62
2023/07/01 11:54:18;;;;;;;3.40;3.30;;;20.90;99.90;;;;;;5033593;28;20410;-62
2023/07/01 11:56:44;;;;;;;3.97;3.80;;;20.90;99.90;;;;;;5033413;28;20428;-61
2023/07/01 11:59:12;;;;;;;3.97;3.77;;;20.80;99.90;;;;;;5046871;28;20765;-61
2023/07/01 12:01:39;;;;;;;129.87;115.37;;;20.70;99.90;;;;;;5032692;28;20429;-61
2023/07/01 12:04:15;;;;;;;10.43;9.53;;;20.60;99.90;;;;;;5036025;28;20490;-61
2023/07/01 12:06:41;;;;;;;3.40;3.30;;;20.70;99.90;;;;;;5034708;28;20538;-62
2023/07/01 12:09:08;;;;;;;3.20;3.10;;;20.70;99.90;;;;;;5050280;28;20420;-61
2023/07/01 12:11:45;;;;;;;3.30;3.20;;;20.70;99.90;;;;;;5043998;28;20205;-61
2023/07/01 12:14:22;;;;;;;3.13;3.03;;;20.60;99.90;;;;;;5033388;28;20729;-61
2023/07/01 12:16:51;;;;;;;3.20;3.10;;;20.60;99.90;;;;;;5037507;28;20484;-61
2023/07/01 12:19:22;;;;;;;3.17;3.07;;;20.60;99.90;;;;;;5035739;28;20428;-65
2023/07/01 12:21:49;;;;;;;3.20;3.10;;;20.60;99.90;;;;;;5052408;28;20423;-61
2023/07/01 12:24:26;;;;;;;3.50;3.40;;;20.60;99.90;;;;;;5049650;28;20919;-61
2023/07/01 12:26:57;;;;;;;3.33;3.23;;;20.50;99.90;;;;;;5034125;28;20488;-61
2023/07/01 12:29:24;;;;;;;3.63;3.53;;;20.50;99.90;;;;;;5037244;28;20474;-61
2023/07/01 12:31:50;;;;;;;3.43;3.33;;;20.60;99.90;;;;;;5043021;28;20757;-61
2023/07/01 12:34:16;;;;;;;3.57;3.37;;;20.60;99.90;;;;;;5041984;28;20417;-61
2023/07/01 12:36:43;;;;;;;3.37;3.27;;;20.50;99.90;;;;;;5032618;28;20795;-62
2023/07/01 12:39:10;;;;;;;3.63;3.53;;;20.50;99.90;;;;;;5039501;28;20448;-61
2023/07/01 12:41:36;;;;;;;2.90;2.80;;;20.50;99.90;;;;;;5040479;28;20782;-62
2023/07/01 12:44:07;;;;;;;3.30;3.20;;;20.40;99.90;;;;;;5039039;28;20430;-61
2023/07/01 12:46:33;;;;;;;3.50;3.40;;;20.40;99.90;;;;;;5052809;28;20427;-61
2023/07/01 12:49:02;;;;;;;2.97;2.87;;;20.40;99.90;;;;;;5038299;28;20405;-61
2023/07/01 12:51:28;;;;;;;3.50;3.40;;;20.40;99.90;;;;;;5014966;28;20202;-61